EAG5508 GVAC-DIAP
Flight info
| Callsign | EAG5508 |
|---|---|
| Flight time | 3h 8m |
| Altitude | 23000 |
| Route | POLMO R976 LUMPO/N0455F330 UR976 ANITI UR979 ERIDI/N0459F350 UR979 PIVKI PIVKI1S |
| Aircraft | A321/M-SDE3FGHIRWY/LB1 |
Departure
| Time | 2026-05-08 16:45 |
|---|---|
| Airport | Amílcar Cabral International Airport (GVAC) |
Arrival
| Time | 2026-05-08 19:53 |
|---|---|
| Airport | Félix-Houphouët-Boigny International Airport (DIAP) |
| Time | Latitude | Longitude | Altitude | Speed | Heading |
|---|---|---|---|---|---|
| 2026-05-08 16:28 | 16.73496 | -22.94499 | 201 ft | 0 kts | 90° |
| 2026-05-08 16:38 | 16.73496 | -22.94510 | 213 ft | 4 kts | 91° |
| 2026-05-08 16:38 | 16.73497 | -22.94538 | 207 ft | 4 kts | 96° |
| 2026-05-08 16:38 | 16.73501 | -22.94566 | 211 ft | 4 kts | 107° |
| 2026-05-08 16:38 | 16.73513 | -22.94590 | 206 ft | 4 kts | 141° |
| 2026-05-08 16:39 | 16.73524 | -22.94596 | 209 ft | 0 kts | 179° |
| 2026-05-08 16:40 | 16.73520 | -22.94596 | 211 ft | 4 kts | 179° |
| 2026-05-08 16:41 | 16.73464 | -22.94596 | 206 ft | 11 kts | 180° |
| 2026-05-08 16:41 | 16.73390 | -22.94596 | 200 ft | 12 kts | 179° |
| 2026-05-08 16:41 | 16.73302 | -22.94594 | 211 ft | 12 kts | 179° |
| 2026-05-08 16:42 | 16.73156 | -22.94594 | 208 ft | 10 kts | 179° |
| 2026-05-08 16:42 | 16.73088 | -22.94607 | 214 ft | 11 kts | 214° |
| 2026-05-08 16:42 | 16.73032 | -22.94681 | 200 ft | 13 kts | 213° |
| 2026-05-08 16:42 | 16.72934 | -22.94691 | 192 ft | 19 kts | 180° |
| 2026-05-08 16:43 | 16.72771 | -22.94689 | 188 ft | 25 kts | 179° |
| 2026-05-08 16:43 | 16.72601 | -22.94689 | 185 ft | 25 kts | 179° |
| 2026-05-08 16:43 | 16.72450 | -22.94688 | 183 ft | 15 kts | 187° |
| 2026-05-08 16:43 | 16.72406 | -22.94760 | 190 ft | 11 kts | 269° |
| 2026-05-08 16:44 | 16.72406 | -22.94833 | 185 ft | 11 kts | 268° |
| 2026-05-08 16:44 | 16.72431 | -22.94885 | 192 ft | 7 kts | 340° |
| 2026-05-08 16:44 | 16.72451 | -22.94886 | 187 ft | 0 kts | 2° |
| 2026-05-08 16:44 | 16.72504 | -22.94886 | 187 ft | 34 kts | 0° |
| 2026-05-08 16:45 | 16.72979 | -22.94889 | 192 ft | 99 kts | 359° |
| 2026-05-08 16:45 | 16.73850 | -22.94895 | 190 ft | 148 kts | 359° |
| 2026-05-08 16:45 | 16.74982 | -22.94909 | 324 ft | 176 kts | 2° |
| 2026-05-08 16:45 | 16.76210 | -22.94925 | 971 ft | 176 kts | 1° |
| 2026-05-08 16:46 | 16.77417 | -22.94933 | 1565 ft | 171 kts | 0° |
| 2026-05-08 16:46 | 16.78614 | -22.94939 | 1945 ft | 177 kts | 1° |
| 2026-05-08 16:46 | 16.79910 | -22.94946 | 2068 ft | 196 kts | 1° |
| 2026-05-08 16:46 | 16.81337 | -22.94952 | 2195 ft | 216 kts | 1° |
| 2026-05-08 16:47 | 16.82928 | -22.94959 | 2405 ft | 239 kts | 0° |
| 2026-05-08 16:47 | 16.84630 | -22.94970 | 2959 ft | 248 kts | 0° |
| 2026-05-08 16:47 | 16.86314 | -22.94649 | 3508 ft | 256 kts | 27° |
| 2026-05-08 16:47 | 16.87595 | -22.93345 | 4019 ft | 268 kts | 61° |
| 2026-05-08 16:48 | 16.88032 | -22.91432 | 4474 ft | 279 kts | 88° |
| 2026-05-08 16:48 | 16.87935 | -22.89395 | 4985 ft | 284 kts | 97° |
| 2026-05-08 16:48 | 16.87688 | -22.87321 | 5456 ft | 291 kts | 98° |
| 2026-05-08 16:48 | 16.87454 | -22.85204 | 5985 ft | 295 kts | 96° |
| 2026-05-08 16:49 | 16.87295 | -22.83069 | 6594 ft | 296 kts | 94° |
| 2026-05-08 16:49 | 16.87209 | -22.80919 | 7146 ft | 298 kts | 92° |
| 2026-05-08 16:49 | 16.87174 | -22.78774 | 7682 ft | 301 kts | 92° |
| 2026-05-08 16:49 | 16.86965 | -22.76599 | 7965 ft | 302 kts | 105° |
| 2026-05-08 16:50 | 16.86242 | -22.74562 | 8181 ft | 299 kts | 122° |
| 2026-05-08 16:50 | 16.85096 | -22.72767 | 8793 ft | 297 kts | 128° |
| 2026-05-08 16:50 | 16.83897 | -22.71001 | 9389 ft | 299 kts | 128° |
| 2026-05-08 16:50 | 16.82698 | -22.69224 | 9956 ft | 301 kts | 128° |
| 2026-05-08 16:51 | 16.81481 | -22.67419 | 10276 ft | 312 kts | 128° |
| 2026-05-08 16:51 | 16.80194 | -22.65514 | 10398 ft | 329 kts | 128° |
| 2026-05-08 16:51 | 16.78861 | -22.63539 | 10514 ft | 346 kts | 128° |
| 2026-05-08 16:51 | 16.77449 | -22.61446 | 10758 ft | 357 kts | 128° |
| 2026-05-08 16:52 | 16.76011 | -22.59312 | 11210 ft | 361 kts | 128° |
| 2026-05-08 16:52 | 16.74560 | -22.57160 | 11718 ft | 364 kts | 128° |
| 2026-05-08 16:52 | 16.73098 | -22.54993 | 12223 ft | 367 kts | 128° |
| 2026-05-08 16:52 | 16.71624 | -22.52811 | 12734 ft | 369 kts | 128° |
| 2026-05-08 16:53 | 16.68645 | -22.48399 | 13760 ft | 375 kts | 128° |
| 2026-05-08 16:53 | 16.67138 | -22.46169 | 14218 ft | 377 kts | 128° |
| 2026-05-08 16:53 | 16.65642 | -22.43958 | 14663 ft | 380 kts | 128° |
| 2026-05-08 16:54 | 16.64114 | -22.41705 | 15120 ft | 382 kts | 127° |
| 2026-05-08 16:54 | 16.62579 | -22.39440 | 15572 ft | 384 kts | 128° |
| 2026-05-08 16:54 | 16.61034 | -22.37158 | 16011 ft | 386 kts | 127° |
| 2026-05-08 16:54 | 16.59480 | -22.34867 | 16449 ft | 388 kts | 128° |
| 2026-05-08 16:55 | 16.57915 | -22.32564 | 16888 ft | 390 kts | 127° |
| 2026-05-08 16:55 | 16.56343 | -22.30251 | 17312 ft | 392 kts | 126° |
| 2026-05-08 16:55 | 16.54876 | -22.27850 | 17718 ft | 395 kts | 118° |
| 2026-05-08 16:55 | 16.53728 | -22.25236 | 18119 ft | 397 kts | 114° |
| 2026-05-08 16:56 | 16.52619 | -22.22637 | 18489 ft | 399 kts | 114° |
| 2026-05-08 16:56 | 16.51486 | -22.19992 | 18818 ft | 401 kts | 115° |
| 2026-05-08 16:56 | 16.50343 | -22.17336 | 19146 ft | 403 kts | 114° |
| 2026-05-08 16:56 | 16.49195 | -22.14665 | 19467 ft | 405 kts | 114° |
| 2026-05-08 16:57 | 16.48044 | -22.11982 | 19783 ft | 407 kts | 114° |
| 2026-05-08 16:57 | 16.46885 | -22.09286 | 20117 ft | 409 kts | 114° |
| 2026-05-08 16:57 | 16.45722 | -22.06580 | 20427 ft | 410 kts | 114° |
| 2026-05-08 16:57 | 16.44550 | -22.03861 | 20746 ft | 413 kts | 114° |
| 2026-05-08 16:58 | 16.43389 | -22.01163 | 21055 ft | 415 kts | 114° |
| 2026-05-08 16:58 | 16.42208 | -21.98417 | 21365 ft | 417 kts | 114° |
| 2026-05-08 16:58 | 16.41019 | -21.95657 | 21679 ft | 419 kts | 114° |
| 2026-05-08 16:58 | 16.39826 | -21.92885 | 21987 ft | 420 kts | 114° |
| 2026-05-08 16:59 | 16.38625 | -21.90102 | 22284 ft | 422 kts | 114° |
| 2026-05-08 16:59 | 16.37418 | -21.87306 | 22594 ft | 424 kts | 114° |
| 2026-05-08 16:59 | 16.36207 | -21.84497 | 22887 ft | 426 kts | 114° |
| 2026-05-08 16:59 | 16.34992 | -21.81677 | 22987 ft | 426 kts | 114° |
| 2026-05-08 17:00 | 16.33777 | -21.78863 | 23007 ft | 425 kts | 114° |
| 2026-05-08 17:00 | 16.32582 | -21.76098 | 23011 ft | 425 kts | 114° |
| 2026-05-08 17:00 | 16.31368 | -21.73294 | 23010 ft | 425 kts | 114° |
| 2026-05-08 17:00 | 16.30156 | -21.70492 | 23010 ft | 425 kts | 114° |
| 2026-05-08 17:01 | 16.28944 | -21.67690 | 23008 ft | 425 kts | 114° |
| 2026-05-08 17:01 | 16.27731 | -21.64886 | 23002 ft | 425 kts | 114° |
| 2026-05-08 17:01 | 16.26569 | -21.62062 | 23002 ft | 425 kts | 112° |
| 2026-05-08 17:01 | 16.25501 | -21.59195 | 23002 ft | 425 kts | 110° |
| 2026-05-08 17:02 | 16.24495 | -21.56307 | 23002 ft | 425 kts | 109° |
| 2026-05-08 17:02 | 16.23527 | -21.53449 | 23002 ft | 425 kts | 109° |
| 2026-05-08 17:02 | 16.22539 | -21.50553 | 23001 ft | 425 kts | 109° |
| 2026-05-08 17:02 | 16.21534 | -21.47665 | 23002 ft | 425 kts | 110° |
| 2026-05-08 17:03 | 16.20514 | -21.44780 | 22999 ft | 425 kts | 110° |
| 2026-05-08 17:03 | 16.19485 | -21.41896 | 22999 ft | 425 kts | 110° |
| 2026-05-08 17:03 | 16.18451 | -21.39018 | 23000 ft | 425 kts | 110° |
| 2026-05-08 17:03 | 16.17413 | -21.36142 | 23001 ft | 425 kts | 110° |
| 2026-05-08 17:04 | 16.16373 | -21.33265 | 23002 ft | 425 kts | 110° |
| 2026-05-08 17:04 | 16.15335 | -21.30387 | 23002 ft | 425 kts | 110° |
| 2026-05-08 17:04 | 16.14312 | -21.27546 | 23003 ft | 425 kts | 110° |
| 2026-05-08 17:04 | 16.13277 | -21.24670 | 23004 ft | 425 kts | 110° |
| 2026-05-08 17:05 | 16.12241 | -21.21793 | 23004 ft | 425 kts | 110° |
| 2026-05-08 17:05 | 16.11203 | -21.18914 | 23004 ft | 425 kts | 110° |
| 2026-05-08 17:05 | 16.10171 | -21.16037 | 23005 ft | 425 kts | 110° |
| 2026-05-08 17:05 | 16.09137 | -21.13157 | 23002 ft | 425 kts | 110° |
| 2026-05-08 17:06 | 16.08099 | -21.10283 | 23001 ft | 425 kts | 111° |
| 2026-05-08 17:06 | 16.07060 | -21.07407 | 22999 ft | 425 kts | 110° |
| 2026-05-08 17:06 | 16.06035 | -21.04566 | 23000 ft | 425 kts | 110° |
| 2026-05-08 17:06 | 16.04996 | -21.01687 | 23000 ft | 425 kts | 110° |
| 2026-05-08 17:07 | 16.03955 | -20.98807 | 22997 ft | 425 kts | 111° |
| 2026-05-08 17:07 | 16.02915 | -20.95926 | 22998 ft | 426 kts | 110° |
| 2026-05-08 17:07 | 16.01878 | -20.93050 | 22999 ft | 426 kts | 110° |
| 2026-05-08 17:07 | 16.00841 | -20.90168 | 23000 ft | 426 kts | 110° |
| 2026-05-08 17:08 | 15.99804 | -20.87287 | 22997 ft | 426 kts | 110° |
| 2026-05-08 17:08 | 15.98766 | -20.84408 | 22996 ft | 426 kts | 111° |
| 2026-05-08 17:08 | 15.97722 | -20.81528 | 22989 ft | 426 kts | 111° |
| 2026-05-08 17:08 | 15.96688 | -20.78684 | 22981 ft | 427 kts | 111° |
| 2026-05-08 17:09 | 15.95637 | -20.75795 | 22978 ft | 427 kts | 111° |
| 2026-05-08 17:09 | 15.94586 | -20.72908 | 22978 ft | 428 kts | 111° |
| 2026-05-08 17:09 | 15.93533 | -20.70016 | 22982 ft | 428 kts | 111° |
| 2026-05-08 17:09 | 15.92483 | -20.67122 | 22985 ft | 428 kts | 111° |
| 2026-05-08 17:10 | 15.91432 | -20.64223 | 22985 ft | 429 kts | 111° |
| 2026-05-08 17:10 | 15.90381 | -20.61325 | 22986 ft | 429 kts | 111° |
| 2026-05-08 17:10 | 15.89330 | -20.58427 | 22990 ft | 429 kts | 111° |
| 2026-05-08 17:10 | 15.88279 | -20.55527 | 22993 ft | 429 kts | 111° |
| 2026-05-08 17:11 | 15.87246 | -20.52669 | 22989 ft | 429 kts | 111° |
| 2026-05-08 17:11 | 15.86195 | -20.49767 | 22990 ft | 429 kts | 111° |
| 2026-05-08 17:11 | 15.85141 | -20.46868 | 22993 ft | 429 kts | 111° |
| 2026-05-08 17:11 | 15.84082 | -20.43972 | 22994 ft | 429 kts | 111° |
| 2026-05-08 17:12 | 15.83019 | -20.41072 | 22997 ft | 431 kts | 111° |
| 2026-05-08 17:12 | 15.81944 | -20.38141 | 23113 ft | 438 kts | 111° |
| 2026-05-08 17:12 | 15.80858 | -20.35163 | 23247 ft | 444 kts | 111° |
| 2026-05-08 17:12 | 15.79758 | -20.32142 | 23381 ft | 450 kts | 111° |
| 2026-05-08 17:13 | 15.78660 | -20.29123 | 23513 ft | 456 kts | 111° |
| 2026-05-08 17:13 | 15.77532 | -20.26028 | 23629 ft | 461 kts | 111° |
| 2026-05-08 17:13 | 15.76389 | -20.22905 | 23732 ft | 466 kts | 111° |
| 2026-05-08 17:13 | 15.75232 | -20.19742 | 23852 ft | 471 kts | 111° |
| 2026-05-08 17:14 | 15.74066 | -20.16553 | 23951 ft | 475 kts | 111° |
| 2026-05-08 17:14 | 15.72886 | -20.13328 | 24051 ft | 479 kts | 111° |
| 2026-05-08 17:14 | 15.71696 | -20.10082 | 24186 ft | 483 kts | 111° |
| 2026-05-08 17:14 | 15.70494 | -20.06819 | 24355 ft | 485 kts | 112° |
| 2026-05-08 17:15 | 15.69307 | -20.03589 | 24524 ft | 487 kts | 112° |
| 2026-05-08 17:15 | 15.68103 | -20.00303 | 24788 ft | 487 kts | 111° |
| 2026-05-08 17:15 | 15.66906 | -19.97025 | 25113 ft | 485 kts | 112° |
| 2026-05-08 17:15 | 15.65715 | -19.93742 | 25313 ft | 486 kts | 112° |
| 2026-05-08 17:16 | 15.64525 | -19.90450 | 25554 ft | 487 kts | 112° |
| 2026-05-08 17:16 | 15.63337 | -19.87163 | 25843 ft | 486 kts | 111° |
| 2026-05-08 17:16 | 15.62150 | -19.83885 | 26129 ft | 486 kts | 112° |
| 2026-05-08 17:16 | 15.60958 | -19.80604 | 26363 ft | 486 kts | 112° |
| 2026-05-08 17:17 | 15.59763 | -19.77321 | 26610 ft | 486 kts | 112° |
| 2026-05-08 17:17 | 15.58583 | -19.74081 | 26873 ft | 486 kts | 112° |
| 2026-05-08 17:17 | 15.57388 | -19.70802 | 27130 ft | 486 kts | 112° |
| 2026-05-08 17:17 | 15.56192 | -19.67522 | 27379 ft | 487 kts | 112° |
| 2026-05-08 17:18 | 15.54997 | -19.64236 | 27628 ft | 487 kts | 112° |
| 2026-05-08 17:18 | 15.53798 | -19.60946 | 27879 ft | 487 kts | 112° |
| 2026-05-08 17:18 | 15.52598 | -19.57664 | 28130 ft | 488 kts | 113° |
| 2026-05-08 17:18 | 15.51393 | -19.54370 | 28369 ft | 488 kts | 113° |
| 2026-05-08 17:19 | 15.50192 | -19.51083 | 28607 ft | 488 kts | 113° |
| 2026-05-08 17:19 | 15.49003 | -19.47830 | 28857 ft | 489 kts | 113° |
| 2026-05-08 17:19 | 15.47799 | -19.44540 | 29091 ft | 489 kts | 113° |
| 2026-05-08 17:19 | 15.46590 | -19.41239 | 29295 ft | 490 kts | 114° |
| 2026-05-08 17:20 | 15.45380 | -19.37934 | 29465 ft | 491 kts | 114° |
| 2026-05-08 17:20 | 15.44165 | -19.34616 | 29648 ft | 493 kts | 114° |
| 2026-05-08 17:20 | 15.42952 | -19.31293 | 29858 ft | 493 kts | 114° |
| 2026-05-08 17:20 | 15.41737 | -19.27964 | 30066 ft | 494 kts | 114° |
| 2026-05-08 17:21 | 15.40519 | -19.24636 | 30251 ft | 494 kts | 114° |
| 2026-05-08 17:21 | 15.39301 | -19.21309 | 30448 ft | 494 kts | 114° |
| 2026-05-08 17:21 | 15.38096 | -19.18029 | 30658 ft | 494 kts | 115° |
| 2026-05-08 17:21 | 15.36873 | -19.14711 | 30878 ft | 493 kts | 115° |
| 2026-05-08 17:22 | 15.35648 | -19.11390 | 31082 ft | 493 kts | 115° |
| 2026-05-08 17:22 | 15.34426 | -19.08072 | 31281 ft | 493 kts | 115° |
| 2026-05-08 17:22 | 15.33202 | -19.04755 | 31487 ft | 493 kts | 115° |
| 2026-05-08 17:22 | 15.31979 | -19.01435 | 31706 ft | 493 kts | 115° |
| 2026-05-08 17:23 | 15.30759 | -18.98122 | 31922 ft | 492 kts | 115° |
| 2026-05-08 17:23 | 15.29540 | -18.94812 | 32150 ft | 492 kts | 115° |
| 2026-05-08 17:23 | 15.28733 | -18.92621 | 32299 ft | 492 kts | 115° |
| 2026-05-08 17:23 | 15.27120 | -18.88240 | 32596 ft | 491 kts | 116° |
| 2026-05-08 17:24 | 15.25905 | -18.84936 | 32817 ft | 491 kts | 116° |
| 2026-05-08 17:24 | 15.24688 | -18.81634 | 32950 ft | 491 kts | 116° |
| 2026-05-08 17:24 | 15.22241 | -18.75036 | 32971 ft | 490 kts | 116° |
| 2026-05-08 17:25 | 15.20211 | -18.69559 | 32966 ft | 490 kts | 116° |
| 2026-05-08 17:25 | 15.17382 | -18.61901 | 32965 ft | 489 kts | 115° |
| 2026-05-08 17:26 | 15.14947 | -18.55329 | 32969 ft | 489 kts | 116° |
| 2026-05-08 17:26 | 15.12503 | -18.48767 | 32970 ft | 489 kts | 116° |
| 2026-05-08 17:27 | 15.10475 | -18.43308 | 32978 ft | 489 kts | 115° |
| 2026-05-08 17:27 | 15.07624 | -18.35623 | 32959 ft | 490 kts | 116° |
| 2026-05-08 17:28 | 15.05194 | -18.29094 | 32963 ft | 490 kts | 116° |
| 2026-05-08 17:28 | 15.02740 | -18.22514 | 32967 ft | 490 kts | 116° |
| 2026-05-08 17:29 | 15.00702 | -18.17044 | 32966 ft | 490 kts | 116° |
| 2026-05-08 17:29 | 14.98252 | -18.10461 | 32964 ft | 490 kts | 116° |
| 2026-05-08 17:30 | 14.95789 | -18.03881 | 32971 ft | 490 kts | 116° |
| 2026-05-08 17:30 | 14.92928 | -17.96245 | 32964 ft | 490 kts | 116° |
| 2026-05-08 17:31 | 14.90867 | -17.90782 | 32956 ft | 490 kts | 116° |
| 2026-05-08 17:31 | 14.88390 | -17.84228 | 32955 ft | 489 kts | 116° |
| 2026-05-08 17:32 | 14.85919 | -17.77675 | 32962 ft | 489 kts | 116° |
| 2026-05-08 17:32 | 14.83452 | -17.71124 | 32957 ft | 489 kts | 116° |
| 2026-05-08 17:33 | 14.80993 | -17.64639 | 32955 ft | 488 kts | 116° |
| 2026-05-08 17:33 | 14.78513 | -17.58109 | 32950 ft | 488 kts | 116° |
| 2026-05-08 17:34 | 14.76043 | -17.51588 | 32964 ft | 487 kts | 116° |
| 2026-05-08 17:34 | 14.73104 | -17.45352 | 32961 ft | 478 kts | 129° |
| 2026-05-08 17:35 | 14.69385 | -17.39677 | 32954 ft | 477 kts | 129° |
| 2026-05-08 17:35 | 14.65691 | -17.34035 | 32953 ft | 477 kts | 129° |
| 2026-05-08 17:36 | 14.61984 | -17.28355 | 32928 ft | 477 kts | 129° |
| 2026-05-08 17:36 | 14.58285 | -17.22680 | 32941 ft | 476 kts | 129° |
| 2026-05-08 17:37 | 14.54590 | -17.17033 | 32941 ft | 474 kts | 129° |
| 2026-05-08 17:37 | 14.50919 | -17.11432 | 32939 ft | 474 kts | 129° |
| 2026-05-08 17:38 | 14.47225 | -17.05808 | 32935 ft | 473 kts | 129° |
| 2026-05-08 17:38 | 14.43534 | -17.00183 | 32919 ft | 473 kts | 129° |
| 2026-05-08 17:39 | 14.39845 | -16.94561 | 32915 ft | 473 kts | 129° |
| 2026-05-08 17:39 | 14.36172 | -16.88974 | 32908 ft | 474 kts | 129° |
| 2026-05-08 17:40 | 14.32478 | -16.83353 | 32906 ft | 474 kts | 129° |
| 2026-05-08 17:40 | 14.28784 | -16.77727 | 32903 ft | 473 kts | 128° |
| 2026-05-08 17:41 | 14.25088 | -16.72113 | 32903 ft | 473 kts | 129° |
| 2026-05-08 17:41 | 14.21387 | -16.66502 | 32895 ft | 473 kts | 128° |
| 2026-05-08 17:42 | 14.17722 | -16.60935 | 32891 ft | 473 kts | 128° |
| 2026-05-08 17:42 | 14.14027 | -16.55330 | 32893 ft | 473 kts | 128° |
| 2026-05-08 17:43 | 14.10329 | -16.49733 | 32891 ft | 472 kts | 128° |
| 2026-05-08 17:43 | 14.06630 | -16.44138 | 32878 ft | 472 kts | 128° |
| 2026-05-08 17:44 | 14.02956 | -16.38586 | 32880 ft | 472 kts | 128° |
| 2026-05-08 17:44 | 13.99260 | -16.32993 | 32867 ft | 472 kts | 128° |
| 2026-05-08 17:45 | 13.95564 | -16.27409 | 32870 ft | 472 kts | 128° |
| 2026-05-08 17:45 | 13.91871 | -16.21831 | 32871 ft | 471 kts | 128° |
| 2026-05-08 17:46 | 13.88202 | -16.16298 | 32864 ft | 471 kts | 128° |
| 2026-05-08 17:46 | 13.84511 | -16.10733 | 32863 ft | 471 kts | 128° |
| 2026-05-08 17:47 | 13.80822 | -16.05170 | 32855 ft | 471 kts | 128° |
| 2026-05-08 17:47 | 13.77129 | -15.99609 | 32855 ft | 471 kts | 128° |
| 2026-05-08 17:48 | 13.73460 | -15.94086 | 32858 ft | 470 kts | 128° |
| 2026-05-08 17:48 | 13.69767 | -15.88536 | 32852 ft | 470 kts | 128° |
| 2026-05-08 17:49 | 13.66081 | -15.82990 | 32857 ft | 469 kts | 128° |
| 2026-05-08 17:49 | 13.62399 | -15.77461 | 32855 ft | 468 kts | 128° |
| 2026-05-08 17:50 | 13.58726 | -15.71943 | 32852 ft | 467 kts | 128° |
| 2026-05-08 17:50 | 13.55077 | -15.66477 | 32853 ft | 467 kts | 128° |
| 2026-05-08 17:51 | 13.51404 | -15.60968 | 32851 ft | 467 kts | 128° |
| 2026-05-08 17:51 | 13.47741 | -15.55472 | 32851 ft | 466 kts | 128° |
| 2026-05-08 17:52 | 13.44101 | -15.50025 | 32847 ft | 465 kts | 128° |
| 2026-05-08 17:53 | 13.38610 | -15.41807 | 32851 ft | 465 kts | 128° |
| 2026-05-08 17:53 | 13.34950 | -15.36339 | 32860 ft | 464 kts | 128° |
| 2026-05-08 17:54 | 13.31297 | -15.30896 | 32853 ft | 462 kts | 128° |
| 2026-05-08 17:54 | 13.27692 | -15.25509 | 32853 ft | 460 kts | 128° |
| 2026-05-08 17:55 | 13.24072 | -15.20101 | 32850 ft | 459 kts | 128° |
| 2026-05-08 17:55 | 13.20455 | -15.14696 | 32857 ft | 461 kts | 128° |
| 2026-05-08 17:55 | 13.18631 | -15.11981 | 32987 ft | 463 kts | 128° |
| 2026-05-08 17:56 | 13.16805 | -15.09263 | 33183 ft | 463 kts | 128° |
| 2026-05-08 17:56 | 13.14980 | -15.06544 | 33447 ft | 462 kts | 128° |
| 2026-05-08 17:56 | 13.13185 | -15.03870 | 33734 ft | 460 kts | 128° |
| 2026-05-08 17:56 | 13.11371 | -15.01171 | 33992 ft | 459 kts | 128° |
| 2026-05-08 17:57 | 13.09560 | -14.98481 | 34208 ft | 458 kts | 128° |
| 2026-05-08 17:57 | 13.07754 | -14.95797 | 34401 ft | 457 kts | 128° |
| 2026-05-08 17:57 | 13.05946 | -14.93112 | 34589 ft | 457 kts | 128° |
| 2026-05-08 17:57 | 13.04139 | -14.90429 | 34763 ft | 457 kts | 128° |
| 2026-05-08 17:58 | 13.02337 | -14.87750 | 34812 ft | 456 kts | 128° |
| 2026-05-08 17:58 | 12.98743 | -14.82410 | 34813 ft | 455 kts | 128° |
| 2026-05-08 17:59 | 12.95168 | -14.77114 | 34814 ft | 455 kts | 128° |
| 2026-05-08 17:59 | 12.91578 | -14.71780 | 34817 ft | 455 kts | 128° |
| 2026-05-08 18:00 | 12.87988 | -14.66446 | 34818 ft | 455 kts | 128° |
| 2026-05-08 18:00 | 12.82581 | -14.58457 | 34828 ft | 455 kts | 128° |
| 2026-05-08 18:01 | 12.79008 | -14.53155 | 34828 ft | 455 kts | 128° |
| 2026-05-08 18:01 | 12.75409 | -14.47820 | 34832 ft | 455 kts | 128° |
| 2026-05-08 18:02 | 12.71806 | -14.42493 | 34830 ft | 455 kts | 128° |
| 2026-05-08 18:02 | 12.68203 | -14.37167 | 34833 ft | 455 kts | 128° |
| 2026-05-08 18:03 | 12.64620 | -14.31884 | 34833 ft | 454 kts | 128° |
| 2026-05-08 18:03 | 12.61015 | -14.26572 | 34834 ft | 454 kts | 128° |
| 2026-05-08 18:04 | 12.57417 | -14.21253 | 34832 ft | 454 kts | 128° |
| 2026-05-08 18:04 | 12.53813 | -14.15938 | 34828 ft | 455 kts | 128° |
| 2026-05-08 18:05 | 12.50201 | -14.10617 | 34828 ft | 455 kts | 128° |
| 2026-05-08 18:05 | 12.46617 | -14.05331 | 34832 ft | 455 kts | 128° |
| 2026-05-08 18:06 | 12.42996 | -14.00012 | 34833 ft | 455 kts | 128° |
| 2026-05-08 18:06 | 12.39377 | -13.94692 | 34831 ft | 455 kts | 128° |
| 2026-05-08 18:07 | 12.35757 | -13.89372 | 34831 ft | 456 kts | 128° |
| 2026-05-08 18:07 | 12.32164 | -13.84089 | 34832 ft | 456 kts | 127° |
| 2026-05-08 18:08 | 12.28548 | -13.78771 | 34834 ft | 455 kts | 127° |
| 2026-05-08 18:08 | 12.24868 | -13.73517 | 34843 ft | 454 kts | 130° |
| 2026-05-08 18:09 | 12.20907 | -13.68507 | 34843 ft | 453 kts | 133° |
| 2026-05-08 18:09 | 12.16864 | -13.63576 | 34841 ft | 452 kts | 132° |
| 2026-05-08 18:10 | 12.12900 | -13.58635 | 34846 ft | 453 kts | 131° |
| 2026-05-08 18:10 | 12.08951 | -13.53626 | 34845 ft | 453 kts | 131° |
| 2026-05-08 18:11 | 12.05003 | -13.48618 | 34844 ft | 452 kts | 131° |
| 2026-05-08 18:11 | 12.01050 | -13.43622 | 34850 ft | 452 kts | 131° |
| 2026-05-08 18:12 | 11.97125 | -13.38668 | 34855 ft | 451 kts | 131° |
| 2026-05-08 18:12 | 11.93176 | -13.33692 | 34855 ft | 451 kts | 131° |
| 2026-05-08 18:13 | 11.89222 | -13.28713 | 34852 ft | 451 kts | 131° |
| 2026-05-08 18:13 | 11.85277 | -13.23738 | 34859 ft | 451 kts | 131° |
| 2026-05-08 18:14 | 11.81322 | -13.18766 | 34860 ft | 451 kts | 131° |
| 2026-05-08 18:14 | 11.77421 | -13.13810 | 34862 ft | 451 kts | 129° |
| 2026-05-08 18:15 | 11.73779 | -13.08582 | 34853 ft | 453 kts | 126° |
| 2026-05-08 18:15 | 11.70289 | -13.03222 | 34847 ft | 454 kts | 126° |
| 2026-05-08 18:16 | 11.66744 | -12.97877 | 34848 ft | 455 kts | 126° |
| 2026-05-08 18:16 | 11.63154 | -12.92597 | 34853 ft | 456 kts | 127° |
| 2026-05-08 18:17 | 11.59514 | -12.87286 | 34876 ft | 457 kts | 127° |
| 2026-05-08 18:17 | 11.55876 | -12.81971 | 34879 ft | 457 kts | 127° |
| 2026-05-08 18:18 | 11.52255 | -12.76642 | 34895 ft | 457 kts | 127° |
| 2026-05-08 18:18 | 11.48657 | -12.71343 | 34895 ft | 458 kts | 127° |
| 2026-05-08 18:19 | 11.45020 | -12.66014 | 34908 ft | 458 kts | 127° |
| 2026-05-08 18:19 | 11.41381 | -12.60680 | 34916 ft | 458 kts | 127° |
| 2026-05-08 18:20 | 11.37744 | -12.55342 | 34915 ft | 458 kts | 127° |
| 2026-05-08 18:20 | 11.34135 | -12.50044 | 34920 ft | 458 kts | 127° |
| 2026-05-08 18:21 | 11.30508 | -12.44717 | 34922 ft | 458 kts | 127° |
| 2026-05-08 18:21 | 11.26863 | -12.39400 | 34919 ft | 457 kts | 127° |
| 2026-05-08 18:22 | 11.23219 | -12.34094 | 34924 ft | 457 kts | 127° |
| 2026-05-08 18:22 | 11.19492 | -12.28866 | 34920 ft | 456 kts | 128° |
| 2026-05-08 18:23 | 11.15766 | -12.23693 | 34919 ft | 456 kts | 128° |
| 2026-05-08 18:23 | 11.12033 | -12.18477 | 34913 ft | 456 kts | 128° |
| 2026-05-08 18:24 | 11.08313 | -12.13256 | 34910 ft | 455 kts | 128° |
| 2026-05-08 18:24 | 11.04598 | -12.08036 | 34915 ft | 455 kts | 128° |
| 2026-05-08 18:25 | 11.00904 | -12.02858 | 34912 ft | 455 kts | 128° |
| 2026-05-08 18:25 | 10.97194 | -11.97655 | 34911 ft | 454 kts | 128° |
| 2026-05-08 18:26 | 10.93479 | -11.92457 | 34908 ft | 454 kts | 128° |
| 2026-05-08 18:26 | 10.89756 | -11.87262 | 34900 ft | 454 kts | 128° |
| 2026-05-08 18:27 | 10.86670 | -11.82944 | 34895 ft | 454 kts | 128° |
| 2026-05-08 18:27 | 10.82356 | -11.76905 | 34900 ft | 454 kts | 128° |
| 2026-05-08 18:28 | 10.78644 | -11.71716 | 34903 ft | 454 kts | 128° |
| 2026-05-08 18:28 | 10.74928 | -11.66525 | 34904 ft | 454 kts | 128° |
| 2026-05-08 18:29 | 10.71206 | -11.61342 | 34905 ft | 454 kts | 128° |
| 2026-05-08 18:29 | 10.67510 | -11.56191 | 34905 ft | 454 kts | 128° |
| 2026-05-08 18:30 | 10.63747 | -11.51046 | 34911 ft | 453 kts | 129° |
| 2026-05-08 18:30 | 10.59888 | -11.45979 | 34911 ft | 453 kts | 130° |
| 2026-05-08 18:31 | 10.56012 | -11.40923 | 34909 ft | 453 kts | 129° |
| 2026-05-08 18:31 | 10.52191 | -11.35881 | 34910 ft | 453 kts | 129° |
| 2026-05-08 18:32 | 10.48351 | -11.30800 | 34914 ft | 453 kts | 129° |
| 2026-05-08 18:32 | 10.44504 | -11.25718 | 34909 ft | 454 kts | 129° |
| 2026-05-08 18:33 | 10.40649 | -11.20630 | 34907 ft | 455 kts | 129° |
| 2026-05-08 18:33 | 10.36817 | -11.15569 | 34908 ft | 455 kts | 129° |
| 2026-05-08 18:34 | 10.32955 | -11.10489 | 34921 ft | 454 kts | 129° |
| 2026-05-08 18:34 | 10.29094 | -11.05411 | 34922 ft | 454 kts | 129° |
| 2026-05-08 18:35 | 10.25254 | -11.00327 | 34920 ft | 454 kts | 127° |
| 2026-05-08 18:35 | 10.21920 | -10.94928 | 34919 ft | 454 kts | 123° |
| 2026-05-08 18:36 | 10.18613 | -10.89463 | 34922 ft | 454 kts | 123° |
| 2026-05-08 18:36 | 10.15300 | -10.84008 | 34912 ft | 454 kts | 123° |
| 2026-05-08 18:37 | 10.11988 | -10.78556 | 34916 ft | 454 kts | 123° |
| 2026-05-08 18:37 | 10.08689 | -10.73151 | 34914 ft | 453 kts | 124° |
| 2026-05-08 18:38 | 10.05109 | -10.67894 | 34909 ft | 453 kts | 127° |
| 2026-05-08 18:38 | 10.01355 | -10.62770 | 34907 ft | 452 kts | 128° |
| 2026-05-08 18:39 | 9.97609 | -10.57636 | 34899 ft | 453 kts | 127° |
| 2026-05-08 18:39 | 9.93915 | -10.52467 | 34905 ft | 453 kts | 127° |
| 2026-05-08 18:40 | 9.90278 | -10.47310 | 34907 ft | 452 kts | 126° |
| 2026-05-08 18:40 | 9.86610 | -10.42133 | 34898 ft | 452 kts | 127° |
| 2026-05-08 18:41 | 9.82929 | -10.36967 | 34903 ft | 452 kts | 127° |
| 2026-05-08 18:41 | 9.79250 | -10.31811 | 34908 ft | 451 kts | 127° |
| 2026-05-08 18:42 | 9.75573 | -10.26652 | 34911 ft | 451 kts | 127° |
| 2026-05-08 18:42 | 9.71920 | -10.21528 | 34908 ft | 451 kts | 127° |
| 2026-05-08 18:43 | 9.68244 | -10.16377 | 34904 ft | 451 kts | 127° |
| 2026-05-08 18:43 | 9.64574 | -10.11231 | 34918 ft | 450 kts | 126° |
| 2026-05-08 18:44 | 9.60914 | -10.06102 | 34914 ft | 448 kts | 126° |
| 2026-05-08 18:44 | 9.57278 | -10.01027 | 34915 ft | 448 kts | 126° |
| 2026-05-08 18:45 | 9.53609 | -9.95925 | 34914 ft | 448 kts | 126° |
| 2026-05-08 18:45 | 9.49951 | -9.90827 | 34920 ft | 447 kts | 126° |
| 2026-05-08 18:46 | 9.46304 | -9.85730 | 34911 ft | 447 kts | 126° |
| 2026-05-08 18:46 | 9.42667 | -9.80670 | 34914 ft | 447 kts | 126° |
| 2026-05-08 18:47 | 9.39014 | -9.75585 | 34930 ft | 446 kts | 126° |
| 2026-05-08 18:47 | 9.35368 | -9.70506 | 34928 ft | 446 kts | 126° |
| 2026-05-08 18:48 | 9.31721 | -9.65436 | 34927 ft | 445 kts | 126° |
| 2026-05-08 18:48 | 9.28092 | -9.60403 | 34930 ft | 445 kts | 126° |
| 2026-05-08 18:49 | 9.24444 | -9.55344 | 34940 ft | 445 kts | 126° |
| 2026-05-08 18:49 | 9.20804 | -9.50281 | 34935 ft | 445 kts | 126° |
| 2026-05-08 18:50 | 9.17168 | -9.45218 | 34931 ft | 445 kts | 125° |
| 2026-05-08 18:50 | 9.13528 | -9.40154 | 34924 ft | 445 kts | 126° |
| 2026-05-08 18:51 | 9.09905 | -9.35136 | 34939 ft | 445 kts | 126° |
| 2026-05-08 18:51 | 9.06250 | -9.30088 | 34942 ft | 445 kts | 126° |
| 2026-05-08 18:52 | 9.02640 | -9.25010 | 34936 ft | 445 kts | 124° |
| 2026-05-08 18:52 | 8.99153 | -9.19844 | 34933 ft | 444 kts | 123° |
| 2026-05-08 18:53 | 8.95711 | -9.14699 | 34952 ft | 444 kts | 124° |
| 2026-05-08 18:53 | 8.92220 | -9.09555 | 34950 ft | 443 kts | 124° |
| 2026-05-08 18:54 | 8.88717 | -9.04438 | 34935 ft | 443 kts | 124° |
| 2026-05-08 18:54 | 8.85215 | -8.99315 | 34933 ft | 443 kts | 124° |
| 2026-05-08 18:55 | 8.79988 | -8.91657 | 34931 ft | 443 kts | 124° |
| 2026-05-08 18:56 | 8.76489 | -8.86526 | 34937 ft | 443 kts | 124° |
| 2026-05-08 18:56 | 8.72987 | -8.81398 | 34935 ft | 443 kts | 124° |
| 2026-05-08 18:57 | 8.69481 | -8.76275 | 34931 ft | 443 kts | 124° |
| 2026-05-08 18:57 | 8.66004 | -8.71177 | 34927 ft | 443 kts | 124° |
| 2026-05-08 18:58 | 8.62499 | -8.66053 | 34936 ft | 443 kts | 124° |
| 2026-05-08 18:58 | 8.58995 | -8.60928 | 34933 ft | 443 kts | 124° |
| 2026-05-08 18:59 | 8.55498 | -8.55811 | 34934 ft | 443 kts | 124° |
| 2026-05-08 18:59 | 8.51991 | -8.50700 | 34931 ft | 442 kts | 124° |
| 2026-05-08 19:00 | 8.48509 | -8.45623 | 34930 ft | 442 kts | 124° |
| 2026-05-08 19:00 | 8.45010 | -8.40512 | 34927 ft | 442 kts | 124° |
| 2026-05-08 19:01 | 8.41509 | -8.35409 | 34930 ft | 442 kts | 124° |
| 2026-05-08 19:01 | 8.38011 | -8.30302 | 34921 ft | 442 kts | 124° |
| 2026-05-08 19:02 | 8.34542 | -8.25233 | 34929 ft | 441 kts | 124° |
| 2026-05-08 19:02 | 8.31052 | -8.20139 | 34918 ft | 441 kts | 124° |
| 2026-05-08 19:03 | 8.27569 | -8.15049 | 34914 ft | 440 kts | 124° |
| 2026-05-08 19:03 | 8.24086 | -8.09961 | 34917 ft | 440 kts | 124° |
| 2026-05-08 19:04 | 8.20611 | -8.04880 | 34915 ft | 440 kts | 124° |
| 2026-05-08 19:04 | 8.17155 | -7.99833 | 34916 ft | 440 kts | 124° |
| 2026-05-08 19:05 | 8.13666 | -7.94760 | 34915 ft | 440 kts | 124° |
| 2026-05-08 19:05 | 8.10185 | -7.89680 | 34912 ft | 440 kts | 124° |
| 2026-05-08 19:06 | 8.06708 | -7.84605 | 34917 ft | 440 kts | 124° |
| 2026-05-08 19:06 | 8.03225 | -7.79528 | 34918 ft | 440 kts | 124° |
| 2026-05-08 19:07 | 7.99763 | -7.74488 | 34923 ft | 440 kts | 124° |
| 2026-05-08 19:07 | 7.96282 | -7.69413 | 34919 ft | 440 kts | 124° |
| 2026-05-08 19:08 | 7.92794 | -7.64341 | 34929 ft | 440 kts | 124° |
| 2026-05-08 19:08 | 7.89307 | -7.59275 | 34909 ft | 440 kts | 124° |
| 2026-05-08 19:09 | 7.85825 | -7.54201 | 34906 ft | 440 kts | 124° |
| 2026-05-08 19:09 | 7.82360 | -7.49159 | 34901 ft | 441 kts | 124° |
| 2026-05-08 19:10 | 7.78862 | -7.44084 | 34898 ft | 441 kts | 124° |
| 2026-05-08 19:10 | 7.75363 | -7.39008 | 34904 ft | 441 kts | 124° |
| 2026-05-08 19:11 | 7.71870 | -7.33929 | 34902 ft | 441 kts | 124° |
| 2026-05-08 19:11 | 7.68401 | -7.28883 | 34893 ft | 441 kts | 124° |
| 2026-05-08 19:12 | 7.64910 | -7.23809 | 34894 ft | 440 kts | 124° |
| 2026-05-08 19:12 | 7.61415 | -7.18738 | 34887 ft | 441 kts | 124° |
| 2026-05-08 19:13 | 7.57912 | -7.13664 | 34880 ft | 441 kts | 124° |
| 2026-05-08 19:13 | 7.54408 | -7.08581 | 34884 ft | 442 kts | 124° |
| 2026-05-08 19:14 | 7.50927 | -7.03528 | 34883 ft | 442 kts | 124° |
| 2026-05-08 19:14 | 7.47413 | -6.98440 | 34875 ft | 443 kts | 124° |
| 2026-05-08 19:15 | 7.43893 | -6.93344 | 34885 ft | 443 kts | 124° |
| 2026-05-08 19:15 | 7.40378 | -6.88245 | 34887 ft | 443 kts | 124° |
| 2026-05-08 19:16 | 7.36882 | -6.83178 | 34879 ft | 443 kts | 124° |
| 2026-05-08 19:16 | 7.33353 | -6.78074 | 34881 ft | 444 kts | 124° |
| 2026-05-08 19:17 | 7.29821 | -6.72967 | 34877 ft | 445 kts | 124° |
| 2026-05-08 19:17 | 7.26284 | -6.67852 | 34887 ft | 445 kts | 124° |
| 2026-05-08 19:18 | 7.22742 | -6.62735 | 34891 ft | 445 kts | 124° |
| 2026-05-08 19:18 | 7.19229 | -6.57650 | 34896 ft | 445 kts | 124° |
| 2026-05-08 19:19 | 7.15690 | -6.52531 | 34893 ft | 445 kts | 124° |
| 2026-05-08 19:19 | 7.12149 | -6.47417 | 34894 ft | 445 kts | 124° |
| 2026-05-08 19:20 | 7.08605 | -6.42298 | 34899 ft | 446 kts | 124° |
| 2026-05-08 19:20 | 7.05078 | -6.37211 | 34895 ft | 446 kts | 124° |
| 2026-05-08 19:21 | 7.01524 | -6.32084 | 34896 ft | 447 kts | 124° |
| 2026-05-08 19:21 | 6.97968 | -6.26950 | 34911 ft | 447 kts | 124° |
| 2026-05-08 19:22 | 6.94409 | -6.21815 | 34910 ft | 447 kts | 124° |
| 2026-05-08 19:22 | 6.90844 | -6.16682 | 34914 ft | 448 kts | 124° |
| 2026-05-08 19:23 | 6.87305 | -6.11578 | 34915 ft | 448 kts | 124° |
| 2026-05-08 19:23 | 6.83744 | -6.06435 | 34913 ft | 448 kts | 124° |
| 2026-05-08 19:24 | 6.80177 | -6.01287 | 34908 ft | 449 kts | 123° |
| 2026-05-08 19:24 | 6.76597 | -5.96139 | 34917 ft | 449 kts | 123° |
| 2026-05-08 19:25 | 6.73014 | -5.91043 | 34920 ft | 449 kts | 124° |
| 2026-05-08 19:25 | 6.69331 | -5.85957 | 34912 ft | 450 kts | 125° |
| 2026-05-08 19:26 | 6.65632 | -5.80889 | 34918 ft | 450 kts | 124° |
| 2026-05-08 19:26 | 6.61949 | -5.75804 | 34901 ft | 449 kts | 124° |
| 2026-05-08 19:27 | 6.58303 | -5.70752 | 34920 ft | 450 kts | 124° |
| 2026-05-08 19:27 | 6.54618 | -5.65664 | 34907 ft | 450 kts | 124° |
| 2026-05-08 19:28 | 6.50934 | -5.60578 | 34912 ft | 450 kts | 124° |
| 2026-05-08 19:28 | 6.47257 | -5.55483 | 34913 ft | 450 kts | 124° |
| 2026-05-08 19:29 | 6.43600 | -5.50416 | 34752 ft | 451 kts | 124° |
| 2026-05-08 19:29 | 6.41753 | -5.47866 | 34517 ft | 450 kts | 124° |
| 2026-05-08 19:29 | 6.39907 | -5.45320 | 34276 ft | 451 kts | 124° |
| 2026-05-08 19:29 | 6.38063 | -5.42777 | 34074 ft | 451 kts | 124° |
| 2026-05-08 19:30 | 6.36215 | -5.40228 | 33850 ft | 451 kts | 124° |
| 2026-05-08 19:30 | 6.34367 | -5.37675 | 33592 ft | 452 kts | 124° |
| 2026-05-08 19:30 | 6.32517 | -5.35118 | 33348 ft | 452 kts | 124° |
| 2026-05-08 19:30 | 6.30666 | -5.32562 | 33086 ft | 453 kts | 124° |
| 2026-05-08 19:31 | 6.28812 | -5.30006 | 32838 ft | 452 kts | 124° |
| 2026-05-08 19:31 | 6.26989 | -5.27490 | 32595 ft | 451 kts | 124° |
| 2026-05-08 19:31 | 6.25151 | -5.24947 | 32355 ft | 449 kts | 124° |
| 2026-05-08 19:31 | 6.23324 | -5.22420 | 31906 ft | 445 kts | 124° |
| 2026-05-08 19:32 | 6.21506 | -5.19910 | 31353 ft | 444 kts | 124° |
| 2026-05-08 19:32 | 6.19691 | -5.17410 | 30801 ft | 442 kts | 124° |
| 2026-05-08 19:32 | 6.17886 | -5.14920 | 30258 ft | 440 kts | 124° |
| 2026-05-08 19:32 | 6.16084 | -5.12435 | 29690 ft | 439 kts | 124° |
| 2026-05-08 19:33 | 6.14295 | -5.09967 | 29141 ft | 435 kts | 124° |
| 2026-05-08 19:33 | 6.12542 | -5.07552 | 28620 ft | 431 kts | 124° |
| 2026-05-08 19:33 | 6.10782 | -5.05126 | 28094 ft | 428 kts | 124° |
| 2026-05-08 19:33 | 6.09037 | -5.02723 | 27584 ft | 424 kts | 124° |
| 2026-05-08 19:34 | 6.07306 | -5.00338 | 27073 ft | 421 kts | 124° |
| 2026-05-08 19:34 | 6.05588 | -4.97971 | 26593 ft | 417 kts | 124° |
| 2026-05-08 19:34 | 6.03883 | -4.95626 | 26095 ft | 414 kts | 124° |
| 2026-05-08 19:34 | 6.02196 | -4.93304 | 25629 ft | 410 kts | 124° |
| 2026-05-08 19:35 | 6.00524 | -4.91001 | 25174 ft | 406 kts | 124° |
| 2026-05-08 19:35 | 5.98870 | -4.88719 | 24721 ft | 402 kts | 124° |
| 2026-05-08 19:35 | 5.97253 | -4.86489 | 24284 ft | 398 kts | 124° |
| 2026-05-08 19:35 | 5.95628 | -4.84248 | 23832 ft | 395 kts | 124° |
| 2026-05-08 19:36 | 5.94014 | -4.82025 | 23364 ft | 392 kts | 124° |
| 2026-05-08 19:36 | 5.92415 | -4.79824 | 22872 ft | 388 kts | 124° |
| 2026-05-08 19:36 | 5.90837 | -4.77652 | 22432 ft | 383 kts | 124° |
| 2026-05-08 19:36 | 5.89279 | -4.75507 | 21991 ft | 378 kts | 124° |
| 2026-05-08 19:37 | 5.87737 | -4.73385 | 21549 ft | 374 kts | 124° |
| 2026-05-08 19:37 | 5.86229 | -4.71308 | 21110 ft | 371 kts | 124° |
| 2026-05-08 19:37 | 5.84717 | -4.69221 | 20659 ft | 368 kts | 124° |
| 2026-05-08 19:37 | 5.83217 | -4.67152 | 20222 ft | 366 kts | 124° |
| 2026-05-08 19:38 | 5.81723 | -4.65092 | 19781 ft | 364 kts | 124° |
| 2026-05-08 19:38 | 5.80237 | -4.63046 | 19340 ft | 362 kts | 124° |
| 2026-05-08 19:38 | 5.78754 | -4.61008 | 18903 ft | 360 kts | 124° |
| 2026-05-08 19:38 | 5.77278 | -4.58980 | 18466 ft | 359 kts | 124° |
| 2026-05-08 19:39 | 5.75806 | -4.56957 | 18007 ft | 358 kts | 124° |
| 2026-05-08 19:39 | 5.74361 | -4.54972 | 17558 ft | 356 kts | 124° |
| 2026-05-08 19:39 | 5.72910 | -4.52978 | 17132 ft | 352 kts | 124° |
| 2026-05-08 19:39 | 5.71469 | -4.50998 | 16709 ft | 349 kts | 124° |
| 2026-05-08 19:40 | 5.70041 | -4.49036 | 16301 ft | 346 kts | 124° |
| 2026-05-08 19:40 | 5.68627 | -4.47093 | 15897 ft | 344 kts | 124° |
| 2026-05-08 19:40 | 5.67222 | -4.45159 | 15488 ft | 341 kts | 124° |
| 2026-05-08 19:40 | 5.65827 | -4.43239 | 15085 ft | 339 kts | 124° |
| 2026-05-08 19:41 | 5.64438 | -4.41332 | 14679 ft | 337 kts | 124° |
| 2026-05-08 19:41 | 5.63056 | -4.39435 | 14278 ft | 336 kts | 124° |
| 2026-05-08 19:41 | 5.61699 | -4.37576 | 13881 ft | 334 kts | 124° |
| 2026-05-08 19:41 | 5.60327 | -4.35695 | 13453 ft | 333 kts | 124° |
| 2026-05-08 19:42 | 5.58967 | -4.33827 | 13035 ft | 330 kts | 124° |
| 2026-05-08 19:42 | 5.57617 | -4.31969 | 12625 ft | 328 kts | 124° |
| 2026-05-08 19:42 | 5.56279 | -4.30132 | 12210 ft | 325 kts | 124° |
| 2026-05-08 19:42 | 5.54948 | -4.28307 | 11704 ft | 326 kts | 124° |
| 2026-05-08 19:43 | 5.53598 | -4.26453 | 11034 ft | 331 kts | 124° |
| 2026-05-08 19:43 | 5.52229 | -4.24569 | 10381 ft | 336 kts | 124° |
| 2026-05-08 19:43 | 5.50891 | -4.22728 | 10213 ft | 324 kts | 124° |
| 2026-05-08 19:43 | 5.49588 | -4.20936 | 10106 ft | 312 kts | 124° |
| 2026-05-08 19:44 | 5.48333 | -4.19216 | 9831 ft | 296 kts | 124° |
| 2026-05-08 19:44 | 5.47158 | -4.17611 | 9490 ft | 276 kts | 124° |
| 2026-05-08 19:44 | 5.46051 | -4.16097 | 9048 ft | 262 kts | 124° |
| 2026-05-08 19:44 | 5.44998 | -4.14655 | 8534 ft | 252 kts | 124° |
| 2026-05-08 19:45 | 5.43963 | -4.13237 | 7825 ft | 251 kts | 124° |
| 2026-05-08 19:45 | 5.42944 | -4.11835 | 7105 ft | 252 kts | 124° |
| 2026-05-08 19:45 | 5.41976 | -4.10369 | 6382 ft | 252 kts | 114° |
| 2026-05-08 19:45 | 5.41439 | -4.08704 | 5651 ft | 252 kts | 98° |
| 2026-05-08 19:46 | 5.41418 | -4.06945 | 4897 ft | 254 kts | 82° |
| 2026-05-08 19:46 | 5.41680 | -4.05190 | 4140 ft | 255 kts | 83° |
| 2026-05-08 19:46 | 5.42170 | -4.01708 | 3137 ft | 237 kts | 84° |
| 2026-05-08 19:47 | 5.42392 | -4.00115 | 2999 ft | 225 kts | 84° |
| 2026-05-08 19:47 | 5.42597 | -3.98634 | 2890 ft | 208 kts | 84° |
| 2026-05-08 19:47 | 5.42791 | -3.97254 | 2768 ft | 192 kts | 85° |
| 2026-05-08 19:47 | 5.42971 | -3.95968 | 2642 ft | 180 kts | 85° |
| 2026-05-08 19:48 | 5.43138 | -3.94763 | 2541 ft | 172 kts | 86° |
| 2026-05-08 19:48 | 5.43302 | -3.93568 | 2421 ft | 174 kts | 87° |
| 2026-05-08 19:48 | 5.43468 | -3.92351 | 2303 ft | 181 kts | 86° |
| 2026-05-08 19:48 | 5.43645 | -3.91074 | 2186 ft | 188 kts | 85° |
| 2026-05-08 19:49 | 5.43707 | -3.89769 | 2106 ft | 183 kts | 108° |
| 2026-05-08 19:49 | 5.43053 | -3.88805 | 2136 ft | 166 kts | 151° |
| 2026-05-08 19:49 | 5.41972 | -3.88531 | 2135 ft | 164 kts | 174° |
| 2026-05-08 19:49 | 5.40854 | -3.88373 | 2132 ft | 160 kts | 172° |
| 2026-05-08 19:50 | 5.39750 | -3.88337 | 2079 ft | 158 kts | 181° |
| 2026-05-08 19:50 | 5.38650 | -3.88343 | 2045 ft | 158 kts | 180° |
| 2026-05-08 19:50 | 5.37593 | -3.88351 | 1999 ft | 148 kts | 185° |
| 2026-05-08 19:50 | 5.36589 | -3.88521 | 1921 ft | 147 kts | 191° |
| 2026-05-08 19:51 | 5.35596 | -3.88794 | 1821 ft | 147 kts | 197° |
| 2026-05-08 19:51 | 5.34634 | -3.89104 | 1690 ft | 143 kts | 196° |
| 2026-05-08 19:51 | 5.33745 | -3.89457 | 1423 ft | 139 kts | 202° |
| 2026-05-08 19:51 | 5.32835 | -3.89839 | 1150 ft | 145 kts | 200° |
| 2026-05-08 19:52 | 5.31889 | -3.90233 | 912 ft | 149 kts | 201° |
| 2026-05-08 19:52 | 5.30940 | -3.90608 | 752 ft | 145 kts | 201° |
| 2026-05-08 19:52 | 5.30038 | -3.90987 | 581 ft | 137 kts | 200° |
| 2026-05-08 19:52 | 5.29158 | -3.91347 | 431 ft | 137 kts | 201° |
| 2026-05-08 19:53 | 5.28248 | -3.91711 | 248 ft | 140 kts | 203° |
| 2026-05-08 19:53 | 5.27340 | -3.92084 | 52 ft | 140 kts | 202° |
| 2026-05-08 19:53 | 5.26541 | -3.92415 | 25 ft | 94 kts | 202° |
| 2026-05-08 19:53 | 5.26197 | -3.92557 | 28 ft | 29 kts | 202° |
| 2026-05-08 19:54 | 5.26016 | -3.92633 | 30 ft | 27 kts | 202° |
| 2026-05-08 19:54 | 5.25849 | -3.92701 | 27 ft | 25 kts | 202° |
| 2026-05-08 19:54 | 5.25666 | -3.92777 | 26 ft | 30 kts | 201° |
| 2026-05-08 19:54 | 5.25515 | -3.92839 | 27 ft | 17 kts | 203° |
| 2026-05-08 19:55 | 5.25469 | -3.92909 | 26 ft | 13 kts | 279° |
| 2026-05-08 19:55 | 5.25498 | -3.92986 | 27 ft | 11 kts | 286° |
| 2026-05-08 19:55 | 5.25470 | -3.93047 | 27 ft | 9 kts | 238° |
| 2026-05-08 19:55 | 5.25475 | -3.93106 | 28 ft | 8 kts | 279° |
| 2026-05-08 19:56 | 5.25479 | -3.93149 | 28 ft | 2 kts | 276° |
| 2026-05-08 19:56 | 5.25481 | -3.93158 | 28 ft | 0 kts | 276° |